メインページ
METAR-TAF:

METAR-TAF

空港 :

キュラソー島, オランダ領アンティル

ハト国際空港

緯度: 12-12N, 経度: 068-58W, 海抜: 9m

現時点の気象観測

当レポートは34分前の16:00(UTC)に作成
の風 13kt
気温 30°C
湿度 75%
気圧 1012 hPa
視程10km以上
高度2200ftの雲は散在している

METAR: TNCC 221600Z 10013KT 9999 SCT022 30/25 Q1012 NOSIG

時間: 12:34 (16:34 UTC)

予報

当レポートは7時間4分前の09:30(UTC)に作成
予報は22日の 12時(UTC)から 23日の 12時(UTC)まで有効
東/南東の風 14kt
視程10km以上
高度2000ftの雲は散在している
22日の 12時(UTC)から 22日の 18時(UTC)まで一時的に
高度1400ftの千切れ雲あり

TAF: TNCC 220930Z 2212/2312 11014KT 9999 SCT020 TEMPO 2212/2218 BKN014

4,000以上の空港の気象観測と天気予報(METAR報とTAF報)

利用可能な観測所は地図上に黄色い丸と赤い丸で示す。

丸の上にカーソルを重ねると観測所名を参照できる。

次にクリックすると気象観測と天気予報を参照できる。

マップの切り替え:黒色「×」印の緑ボタンをクリックして拡大、「-」印の緑ボタンをクリックして縮小、緑色の三角印をクリックして隣りの地図に切り替え


METAR-TAF: